Time;durP1;ratioP1;P1;durP2;ratioP2;P2;SDS_P1;SDS_P2;PMS_P1;PMS_P2;Temp;Humidity;BMP_temperature;BMP_pressure;BME280_temperature;BME280_humidity;BME280_pressure;Samples;Min_cycle;Max_cycle;Signal;HPM_P1;HPM_P2
2023/10/16 00:01:49;;;;;;;6.75;4.25;;;9.50;67.70;;;;;;4975860;28;20045;-49
2023/10/16 00:04:18;;;;;;;5.35;4.45;;;9.50;68.00;;;;;;4969668;28;20074;-45
2023/10/16 00:06:49;;;;;;;5.32;4.78;;;9.50;68.30;;;;;;4961191;28;20130;-48
2023/10/16 00:09:21;;;;;;;9.85;4.47;;;9.50;68.50;;;;;;4950319;28;20093;-47
2023/10/16 00:11:48;;;;;;;8.57;5.05;;;9.50;68.60;;;;;;4961087;28;20042;-48
2023/10/16 00:14:30;;;;;;;7.47;5.30;;;9.50;68.80;;;;;;4967193;28;20057;-51
2023/10/16 00:16:57;;;;;;;5.63;4.25;;;9.50;68.80;;;;;;4962936;28;20034;-48
2023/10/16 00:19:24;;;;;;;7.05;5.18;;;9.50;68.90;;;;;;4971958;28;20102;-49
2023/10/16 00:21:52;;;;;;;7.90;5.10;;;9.50;69.10;;;;;;4960843;28;20035;-48
2023/10/16 00:24:19;;;;;;;6.45;4.60;;;9.50;69.00;;;;;;4955401;28;20133;-48
2023/10/16 00:26:49;;;;;;;6.72;4.90;;;9.50;68.70;;;;;;4968652;28;20413;-49
2023/10/16 00:29:17;;;;;;;5.38;4.55;;;9.50;68.80;;;;;;4955821;28;20105;-47
2023/10/16 00:31:46;;;;;;;6.85;4.95;;;9.50;68.60;;;;;;4976727;28;20039;-48
2023/10/16 00:34:19;;;;;;;6.57;5.25;;;9.50;68.40;;;;;;4972019;28;20548;-50
2023/10/16 00:36:53;;;;;;;7.38;4.85;;;9.50;68.20;;;;;;4969297;28;20051;-49
2023/10/16 00:39:28;;;;;;;5.03;4.50;;;9.50;68.00;;;;;;4976656;28;20126;-48
2023/10/16 00:41:57;;;;;;;4.50;3.95;;;9.50;67.80;;;;;;4975406;28;20580;-50
2023/10/16 00:44:29;;;;;;;4.95;4.30;;;9.50;67.60;;;;;;4964442;28;20420;-49
2023/10/16 00:46:56;;;;;;;4.72;4.15;;;9.40;67.50;;;;;;4974667;28;20492;-51
2023/10/16 00:49:23;;;;;;;5.35;4.00;;;9.40;67.30;;;;;;4977740;28;20413;-47
2023/10/16 00:51:50;;;;;;;7.20;4.28;;;9.40;67.10;;;;;;4974325;28;20081;-50
2023/10/16 00:54:31;;;;;;;5.53;4.28;;;9.30;67.00;;;;;;4968258;28;20043;-48
2023/10/16 00:56:59;;;;;;;4.85;4.45;;;9.30;67.00;;;;;;4962663;28;20039;-49
2023/10/16 00:59:27;;;;;;;8.20;4.70;;;9.20;66.80;;;;;;4974131;28;20485;-49
2023/10/16 01:02:14;;;;;;;5.70;4.35;;;9.20;66.70;;;;;;4972270;28;20094;-49
2023/10/16 01:04:43;;;;;;;6.10;4.45;;;9.20;66.90;;;;;;4953084;28;20069;-47
2023/10/16 01:07:14;;;;;;;6.78;4.63;;;9.10;66.90;;;;;;4945885;28;20116;-46
2023/10/16 01:09:43;;;;;;;3.42;3.13;;;9.00;67.50;;;;;;4943213;28;20055;-48
2023/10/16 01:12:11;;;;;;;4.95;4.35;;;9.00;66.90;;;;;;4957956;28;20057;-51
2023/10/16 01:14:39;;;;;;;5.82;5.00;;;9.00;67.00;;;;;;4972827;28;20039;-48
2023/10/16 01:17:12;;;;;;;4.85;4.35;;;9.00;67.00;;;;;;4952846;28;20046;-47
2023/10/16 01:19:43;;;;;;;6.15;4.47;;;9.00;67.10;;;;;;4952445;28;20162;-49
2023/10/16 01:22:13;;;;;;;5.47;4.57;;;8.90;67.00;;;;;;4973026;28;20039;-48
2023/10/16 01:24:43;;;;;;;5.05;4.55;;;8.90;67.00;;;;;;4951670;28;20047;-47
2023/10/16 01:27:25;;;;;;;5.03;4.50;;;8.90;67.00;;;;;;4962773;28;20080;-50
2023/10/16 01:29:59;;;;;;;4.60;4.13;;;8.80;67.00;;;;;;4976384;28;20050;-50
2023/10/16 01:32:27;;;;;;;5.30;4.40;;;8.80;66.80;;;;;;4979307;28;20069;-51
2023/10/16 01:34:56;;;;;;;4.75;4.35;;;8.80;67.00;;;;;;4950623;28;20046;-47
2023/10/16 01:37:23;;;;;;;6.55;4.47;;;8.70;67.00;;;;;;4969167;28;20043;-48
2023/10/16 01:39:53;;;;;;;5.03;4.47;;;8.70;67.00;;;;;;4959153;28;20043;-48
2023/10/16 01:42:21;;;;;;;9.07;5.10;;;8.70;67.00;;;;;;4971079;28;20043;-50
2023/10/16 01:44:51;;;;;;;7.40;5.07;;;8.70;67.00;;;;;;4964017;28;20039;-47
2023/10/16 01:47:18;;;;;;;6.07;5.57;;;8.70;67.10;;;;;;4956544;28;20086;-48
2023/10/16 01:49:49;;;;;;;7.90;5.53;;;8.60;67.20;;;;;;4976975;28;20038;-48
2023/10/16 01:52:16;;;;;;;6.13;5.47;;;8.60;67.60;;;;;;4970898;28;20058;-49
2023/10/16 01:54:46;;;;;;;6.53;5.50;;;8.60;67.60;;;;;;4968297;28;20550;-48
2023/10/16 01:57:14;;;;;;;6.15;5.32;;;8.60;67.70;;;;;;4955838;28;20053;-48
2023/10/16 01:59:47;;;;;;;6.65;5.07;;;8.60;67.80;;;;;;4950766;28;20035;-47
2023/10/16 02:02:16;;;;;;;5.90;5.25;;;8.60;68.00;;;;;;4967638;28;20062;-47
2023/10/16 02:04:43;;;;;;;8.70;5.93;;;8.60;68.00;;;;;;4954580;28;20109;-47
2023/10/16 02:07:13;;;;;;;9.40;5.78;;;8.60;67.90;;;;;;4953020;28;20062;-48
2023/10/16 02:09:45;;;;;;;7.47;5.97;;;8.60;68.00;;;;;;4977934;28;20104;-51
2023/10/16 02:12:14;;;;;;;6.00;5.40;;;8.60;68.00;;;;;;4977441;28;20054;-47
2023/10/16 02:14:44;;;;;;;6.85;5.45;;;8.60;68.00;;;;;;4964402;28;20597;-47
2023/10/16 02:17:18;;;;;;;6.00;5.35;;;8.60;67.90;;;;;;4953861;28;20069;-49
2023/10/16 02:19:45;;;;;;;6.22;5.22;;;8.60;68.00;;;;;;4971816;28;20046;-46
2023/10/16 02:22:12;;;;;;;8.43;5.85;;;8.60;68.20;;;;;;4975553;28;20043;-51
2023/10/16 02:24:40;;;;;;;6.20;5.20;;;8.60;68.30;;;;;;4959031;28;20081;-51
2023/10/16 02:27:12;;;;;;;5.65;4.78;;;8.60;68.30;;;;;;4962389;28;20039;-49
2023/10/16 02:29:45;;;;;;;5.50;5.00;;;8.60;68.20;;;;;;4972379;28;20125;-51
2023/10/16 02:32:15;;;;;;;8.27;5.20;;;8.60;68.20;;;;;;4969474;28;20090;-51
2023/10/16 02:34:42;;;;;;;9.48;5.82;;;8.60;68.20;;;;;;4965864;28;20048;-45
2023/10/16 02:37:14;;;;;;;6.88;5.10;;;8.60;68.30;;;;;;4969980;28;20082;-49
2023/10/16 02:39:50;;;;;;;5.93;5.32;;;8.60;68.20;;;;;;4954412;28;20429;-51
2023/10/16 02:42:17;;;;;;;5.68;5.18;;;8.60;68.20;;;;;;4975163;28;20058;-50
2023/10/16 02:44:45;;;;;;;6.07;4.75;;;8.60;68.00;;;;;;4959679;28;20039;-48
2023/10/16 02:47:21;;;;;;;6.30;5.05;;;8.60;67.90;;;;;;4978815;28;20047;-51
2023/10/16 02:49:48;;;;;;;6.68;5.53;;;8.60;68.00;;;;;;4982638;28;20046;-48
2023/10/16 02:52:16;;;;;;;7.78;5.18;;;8.60;68.00;;;;;;4970832;28;20070;-52
2023/10/16 02:54:46;;;;;;;7.40;5.10;;;8.50;68.00;;;;;;4953431;28;20050;-51
2023/10/16 02:57:19;;;;;;;6.20;4.82;;;8.60;68.00;;;;;;4966567;28;20054;-52
2023/10/16 02:59:46;;;;;;;5.60;5.10;;;8.50;67.70;;;;;;4977375;28;20049;-50
2023/10/16 03:02:22;;;;;;;5.18;4.68;;;8.50;67.60;;;;;;4983135;28;20046;-49
2023/10/16 03:04:54;;;;;;;7.15;5.72;;;8.50;68.30;;;;;;4961109;28;20552;-48
2023/10/16 03:07:25;;;;;;;7.25;5.30;;;8.50;67.90;;;;;;4975464;28;20050;-49
2023/10/16 03:09:52;;;;;;;6.60;5.40;;;8.50;68.20;;;;;;4954345;28;20418;-48
2023/10/16 03:12:20;;;;;;;6.43;5.82;;;8.50;68.20;;;;;;4973856;28;20067;-50
2023/10/16 03:14:57;;;;;;;6.53;5.35;;;8.50;68.20;;;;;;4967946;28;20042;-51
2023/10/16 03:17:42;;;;;;;5.97;5.20;;;8.50;68.20;;;;;;4973728;28;20049;-47
2023/10/16 03:20:23;;;;;;;6.18;5.50;;;8.50;68.20;;;;;;4982581;28;20035;-49
2023/10/16 03:22:51;;;;;;;5.40;4.95;;;8.50;68.10;;;;;;4971564;28;20097;-48
2023/10/16 03:25:27;;;;;;;6.57;5.32;;;8.50;68.20;;;;;;4973377;28;20054;-48
2023/10/16 03:27:56;;;;;;;6.55;5.13;;;8.40;68.00;;;;;;4969274;28;20035;-50
2023/10/16 03:30:27;;;;;;;7.40;5.75;;;8.30;68.00;;;;;;4983282;28;20047;-47
2023/10/16 03:32:58;;;;;;;7.95;5.70;;;8.50;68.20;;;;;;4979514;28;20043;-49
2023/10/16 03:35:38;;;;;;;6.70;5.68;;;8.40;68.60;;;;;;4955350;28;20061;-50
2023/10/16 03:38:20;;;;;;;8.43;5.53;;;8.40;68.10;;;;;;4970655;28;20050;-49
2023/10/16 03:40:51;;;;;;;5.82;5.22;;;8.40;67.90;;;;;;4977877;28;20519;-50
2023/10/16 03:43:19;;;;;;;6.65;5.65;;;8.40;67.90;;;;;;4969180;28;20126;-49
2023/10/16 03:45:49;;;;;;;6.00;5.40;;;8.40;67.90;;;;;;4984221;28;20038;-49
2023/10/16 03:48:17;;;;;;;6.30;5.35;;;8.40;67.80;;;;;;4982521;28;20120;-49
2023/10/16 03:50:44;;;;;;;6.00;5.45;;;8.40;67.80;;;;;;4978067;28;20078;-48
2023/10/16 03:53:13;;;;;;;6.43;4.95;;;8.30;67.80;;;;;;4967956;28;20059;-48
2023/10/16 03:55:49;;;;;;;5.72;4.90;;;8.30;67.70;;;;;;4977418;28;20117;-47
2023/10/16 03:58:16;;;;;;;6.25;5.35;;;8.30;67.80;;;;;;4966768;28;20062;-49
2023/10/16 04:00:58;;;;;;;5.97;5.43;;;8.30;67.60;;;;;;4983375;28;20050;-49
2023/10/16 04:03:36;;;;;;;5.72;5.22;;;8.20;67.50;;;;;;4984507;28;20428;-50
2023/10/16 04:06:08;;;;;;;6.10;4.78;;;8.20;67.50;;;;;;4970394;28;20046;-47
2023/10/16 04:08:35;;;;;;;5.40;4.90;;;8.20;67.50;;;;;;4973615;28;20120;-48
2023/10/16 04:11:03;;;;;;;6.22;5.60;;;8.20;67.40;;;;;;4982951;28;20069;-48
2023/10/16 04:13:31;;;;;;;6.05;5.45;;;8.20;67.40;;;;;;4968308;28;20043;-49
2023/10/16 04:16:11;;;;;;;6.47;5.88;;;8.20;67.40;;;;;;4971790;28;20580;-51
2023/10/16 04:18:39;;;;;;;10.10;5.40;;;8.10;67.40;;;;;;4977297;28;20050;-48
2023/10/16 04:23:52;;;;;;;7.50;5.50;;;8.10;67.50;;;;;;4971461;28;20073;-48
2023/10/16 04:31:45;;;;;;;8.80;6.43;;;8.00;67.40;;;;;;4972697;28;20120;-49
2023/10/16 04:45:39;;;;;;;7.70;5.63;;;8.00;67.80;;;;;;4966866;28;20102;-46
2023/10/16 04:48:07;;;;;;;8.18;6.40;;;8.00;67.70;;;;;;4979630;28;20058;-50
2023/10/16 04:50:39;;;;;;;8.07;6.05;;;8.00;67.60;;;;;;4985660;28;20049;-47
2023/10/16 04:53:13;;;;;;;7.28;5.90;;;7.90;67.70;;;;;;4974299;28;20035;-46
2023/10/16 05:13:22;;;;;;;8.27;5.82;;;7.80;67.50;;;;;;4973272;28;20560;-49
2023/10/16 05:18:00;;;;;;;7.18;5.22;;;7.80;67.50;;;;;;4944766;28;20518;-48
2023/10/16 05:21:18;;;;;;;9.68;5.78;;;7.80;67.50;;;;;;4975893;28;20527;-49
2023/10/16 06:15:55;;;;;;;9.18;6.28;;;7.90;68.80;;;;;;4933785;28;20071;-52
2023/10/16 06:18:22;;;;;;;7.57;6.40;;;7.90;68.80;;;;;;4976389;28;20421;-50
2023/10/16 06:20:52;;;;;;;9.57;7.80;;;7.90;69.00;;;;;;4958042;28;20039;-52
2023/10/16 06:23:19;;;;;;;10.27;7.20;;;8.00;69.20;;;;;;4970796;28;20493;-51
2023/10/16 06:25:47;;;;;;;9.70;7.93;;;8.00;69.30;;;;;;4973611;28;20413;-51
2023/10/16 06:28:15;;;;;;;8.95;7.20;;;8.00;69.40;;;;;;4962521;28;20066;-50
2023/10/16 06:30:43;;;;;;;10.15;7.18;;;8.00;69.40;;;;;;4975123;28;20038;-52
2023/10/16 06:33:14;;;;;;;8.85;7.18;;;8.10;69.50;;;;;;4989000;28;20061;-52
2023/10/16 06:35:41;;;;;;;8.32;7.30;;;8.10;69.50;;;;;;4976278;28;20497;-48
2023/10/16 06:38:11;;;;;;;9.15;6.80;;;8.20;69.60;;;;;;4976019;28;20106;-47
2023/10/16 06:40:40;;;;;;;9.52;7.78;;;8.20;69.70;;;;;;4982805;28;20117;-47
2023/10/16 06:43:10;;;;;;;7.38;6.20;;;8.20;69.80;;;;;;4984709;28;20066;-51
2023/10/16 06:45:42;;;;;;;8.43;7.60;;;8.30;69.80;;;;;;4961879;28;20038;-49
2023/10/16 06:48:15;;;;;;;9.27;7.40;;;8.30;70.00;;;;;;4980895;28;20101;-50
2023/10/16 06:50:53;;;;;;;9.73;7.60;;;8.30;69.90;;;;;;4990019;28;20038;-51
2023/10/16 06:53:24;;;;;;;9.13;7.85;;;8.40;70.00;;;;;;4971897;28;20043;-47
2023/10/16 06:55:51;;;;;;;14.35;9.60;;;8.40;70.00;;;;;;4965793;28;20443;-49
2023/10/16 06:58:20;;;;;;;13.35;9.55;;;8.50;70.30;;;;;;4972521;28;20046;-48
2023/10/16 07:00:48;;;;;;;14.80;9.98;;;8.50;70.50;;;;;;4990099;28;20526;-52
2023/10/16 07:03:16;;;;;;;12.38;10.02;;;8.60;70.70;;;;;;4988898;28;20121;-50
2023/10/16 07:05:42;;;;;;;11.82;10.02;;;8.60;70.70;;;;;;4975094;28;20039;-47
2023/10/16 07:08:16;;;;;;;13.25;9.30;;;8.70;70.80;;;;;;4980480;28;20560;-50
2023/10/16 07:10:51;;;;;;;11.15;9.00;;;8.80;71.00;;;;;;4991010;28;20388;-48
2023/10/16 07:13:29;;;;;;;12.88;8.75;;;8.80;71.20;;;;;;4980501;28;20087;-53
2023/10/16 07:16:05;;;;;;;10.98;8.35;;;8.90;71.10;;;;;;4938443;28;20098;-48
2023/10/16 07:18:34;;;;;;;13.65;9.32;;;9.00;71.30;;;;;;4973703;28;20540;-52
2023/10/16 07:21:10;;;;;;;11.15;8.60;;;9.00;71.00;;;;;;4964796;28;20409;-48
2023/10/16 07:23:38;;;;;;;11.23;7.68;;;9.10;71.00;;;;;;4958730;28;20082;-48
2023/10/16 07:26:16;;;;;;;9.82;7.70;;;9.20;71.00;;;;;;4960171;28;20078;-47
2023/10/16 07:28:48;;;;;;;8.95;7.78;;;9.20;71.00;;;;;;4984147;28;20405;-49
2023/10/16 07:31:16;;;;;;;10.05;8.27;;;9.30;70.80;;;;;;4989522;28;20449;-47
2023/10/16 07:33:45;;;;;;;9.88;7.68;;;9.30;70.80;;;;;;4984889;28;20046;-49
2023/10/16 07:36:12;;;;;;;11.18;8.05;;;9.40;70.80;;;;;;4980133;28;20038;-49
2023/10/16 07:38:39;;;;;;;10.88;7.82;;;9.40;70.70;;;;;;4987612;28;20047;-51
2023/10/16 07:41:12;;;;;;;9.68;7.63;;;9.50;70.70;;;;;;4991075;28;20039;-52
2023/10/16 07:43:39;;;;;;;12.70;9.07;;;9.50;70.80;;;;;;4975234;28;20039;-50
2023/10/16 07:48:40;;;;;;;11.68;8.73;;;9.60;70.90;;;;;;4991617;28;20049;-51
2023/10/16 07:51:08;;;;;;;14.75;9.48;;;9.60;71.00;;;;;;4990113;28;20033;-48
2023/10/16 07:53:35;;;;;;;14.18;10.00;;;9.70;71.00;;;;;;4973775;28;20066;-49
2023/10/16 07:56:02;;;;;;;10.10;9.07;;;9.70;71.00;;;;;;4957125;28;20453;-52
2023/10/16 07:58:35;;;;;;;14.15;9.68;;;9.70;71.10;;;;;;4977749;28;20408;-52
2023/10/16 08:03:36;;;;;;;12.45;9.30;;;9.80;71.20;;;;;;4976408;28;20117;-48
2023/10/16 08:06:11;;;;;;;11.55;9.73;;;9.80;71.20;;;;;;4974938;28;20113;-49
2023/10/16 08:08:39;;;;;;;12.93;9.43;;;9.90;71.40;;;;;;4966639;28;20098;-48
2023/10/16 08:11:18;;;;;;;11.65;9.45;;;9.90;71.50;;;;;;4966865;28;20528;-47
2023/10/16 08:13:51;;;;;;;11.43;9.65;;;10.00;71.60;;;;;;4966835;28;20713;-46
2023/10/16 08:16:21;;;;;;;11.60;10.10;;;10.10;71.90;;;;;;4970928;28;20469;-49
2023/10/16 08:18:57;;;;;;;11.85;10.20;;;10.10;71.80;;;;;;4947803;28;20106;-49
2023/10/16 08:21:24;;;;;;;13.77;10.15;;;10.20;71.90;;;;;;4959491;28;20069;-48
2023/10/16 08:23:56;;;;;;;13.88;10.30;;;10.30;72.10;;;;;;4961957;28;20039;-48
2023/10/16 08:26:30;;;;;;;14.85;11.10;;;10.40;72.20;;;;;;4962145;28;20067;-49
2023/10/16 08:31:47;;;;;;;16.02;13.70;;;10.50;71.90;;;;;;4973207;28;20061;-47
2023/10/16 08:34:21;;;;;;;15.05;11.70;;;10.60;71.70;;;;;;4966310;28;20523;-50
2023/10/16 08:36:51;;;;;;;16.60;12.25;;;10.70;71.60;;;;;;4964131;28;20050;-52
2023/10/16 08:39:21;;;;;;;12.65;10.73;;;10.70;71.60;;;;;;4968489;28;20039;-48
2023/10/16 08:42:01;;;;;;;12.52;10.15;;;10.80;71.70;;;;;;4966943;28;20416;-50
2023/10/16 08:44:28;;;;;;;12.05;10.73;;;10.90;71.70;;;;;;4959902;28;20058;-51
2023/10/16 08:49:25;;;;;;;15.80;11.93;;;11.00;71.60;;;;;;4972239;28;20113;-51
2023/10/16 08:52:11;;;;;;;17.90;11.63;;;11.00;71.50;;;;;;4971446;28;20043;-50
2023/10/16 08:57:16;;;;;;;12.10;9.80;;;11.10;71.40;;;;;;4957548;28;20043;-48
2023/10/16 08:59:44;;;;;;;14.60;11.15;;;11.20;71.40;;;;;;4966338;28;20081;-50
2023/10/16 09:02:17;;;;;;;17.52;10.98;;;11.20;71.50;;;;;;4973948;28;20410;-50
2023/10/16 09:04:45;;;;;;;14.95;10.88;;;11.20;71.60;;;;;;4970198;28;20062;-47
2023/10/16 09:07:11;;;;;;;13.40;10.55;;;11.20;71.40;;;;;;4964476;28;20043;-49
2023/10/16 09:09:41;;;;;;;14.75;11.27;;;11.30;71.40;;;;;;4973003;28;20129;-48
2023/10/16 09:12:11;;;;;;;15.93;10.48;;;11.30;71.50;;;;;;4958203;28;20079;-48
2023/10/16 09:14:40;;;;;;;13.40;10.88;;;11.30;71.60;;;;;;4955769;28;20047;-52
2023/10/16 09:17:07;;;;;;;13.30;11.10;;;11.30;71.80;;;;;;4953845;28;20194;-47
2023/10/16 09:19:34;;;;;;;12.48;10.43;;;11.40;71.90;;;;;;4966972;28;20540;-51
2023/10/16 09:22:08;;;;;;;12.93;9.32;;;11.40;71.80;;;;;;4965381;28;20564;-52
2023/10/16 09:24:35;;;;;;;11.80;9.68;;;11.40;71.70;;;;;;4963406;28;20089;-49
2023/10/16 09:27:17;;;;;;;10.03;8.73;;;11.50;71.60;;;;;;4963100;28;20035;-51
2023/10/16 09:29:53;;;;;;;10.50;8.30;;;11.50;71.60;;;;;;4959177;28;20043;-51
2023/10/16 09:32:39;;;;;;;11.57;7.63;;;11.50;71.50;;;;;;4965964;28;20051;-48
2023/10/16 09:35:12;;;;;;;12.75;8.48;;;11.60;71.40;;;;;;4963320;28;20098;-50
2023/10/16 09:37:40;;;;;;;9.85;7.85;;;11.60;71.20;;;;;;4961938;28;20038;-50
2023/10/16 09:40:37;;;;;;;11.57;8.68;;;11.70;71.40;;;;;;4973610;28;20062;-48
2023/10/16 09:43:23;;;;;;;8.57;7.40;;;11.70;71.70;;;;;;4969095;28;20047;-51
2023/10/16 09:46:33;;;;;;;13.50;8.85;;;11.70;71.50;;;;;;4966434;28;20046;-52
2023/10/16 09:48:45;;;;;;;12.48;8.38;;;11.80;71.30;;;;;;4967090;28;20512;-50
2023/10/16 09:51:12;;;;;;;9.27;7.13;;;11.80;71.20;;;;;;4973262;28;20129;-50
2023/10/16 09:53:39;;;;;;;11.40;7.07;;;11.80;71.00;;;;;;4967164;28;20101;-50
2023/10/16 09:56:09;;;;;;;6.75;6.05;;;11.90;70.90;;;;;;4962451;28;20037;-48
2023/10/16 09:58:44;;;;;;;9.38;7.28;;;11.90;70.70;;;;;;4959615;28;20109;-49
2023/10/16 10:01:20;;;;;;;10.07;7.22;;;11.90;71.00;;;;;;4974131;28;20416;-49
2023/10/16 10:03:47;;;;;;;9.02;8.07;;;12.00;71.10;;;;;;4973714;28;20035;-49
2023/10/16 10:06:20;;;;;;;9.32;6.88;;;12.00;71.00;;;;;;4968923;28;20039;-52
2023/10/16 10:09:20;;;;;;;9.10;6.10;;;12.00;70.90;;;;;;4961160;28;20043;-48
2023/10/16 10:12:13;;;;;;;8.85;6.50;;;12.10;70.80;;;;;;4959391;28;20115;-52
2023/10/16 10:15:01;;;;;;;10.98;5.55;;;12.00;70.90;;;;;;4958826;28;20050;-51
2023/10/16 10:17:30;;;;;;;10.73;5.53;;;12.20;70.50;;;;;;4961364;28;20102;-52
2023/10/16 10:20:07;;;;;;;5.60;4.88;;;12.20;70.30;;;;;;4962175;28;20051;-48
2023/10/16 10:22:36;;;;;;;7.88;5.15;;;12.30;70.50;;;;;;4960086;28;20038;-48
2023/10/16 10:25:16;;;;;;;8.05;5.35;;;12.30;70.20;;;;;;4968626;28;20520;-49
2023/10/16 10:27:47;;;;;;;7.15;4.95;;;12.40;70.00;;;;;;4960911;28;20514;-49
2023/10/16 10:30:25;;;;;;;6.40;4.28;;;12.40;70.60;;;;;;4975620;28;20053;-50
2023/10/16 10:32:59;;;;;;;7.63;5.15;;;12.50;69.70;;;;;;4966328;28;20122;-52
2023/10/16 10:35:30;;;;;;;7.80;5.30;;;12.60;69.50;;;;;;4958717;28;20046;-48
2023/10/16 10:38:24;;;;;;;9.82;5.60;;;12.60;69.40;;;;;;4975415;28;20070;-52
2023/10/16 10:41:06;;;;;;;9.55;5.18;;;12.70;69.40;;;;;;4959337;28;20452;-49
2023/10/16 10:43:49;;;;;;;8.15;4.70;;;12.80;69.20;;;;;;4963724;28;20101;-52
2023/10/16 10:46:25;;;;;;;8.05;4.13;;;12.80;68.70;;;;;;4973838;28;20042;-48
2023/10/16 10:48:56;;;;;;;4.28;3.67;;;12.90;68.10;;;;;;4960582;28;20047;-47
2023/10/16 10:51:35;;;;;;;4.85;3.67;;;13.00;68.30;;;;;;4966953;28;20405;-50
2023/10/16 10:54:06;;;;;;;5.95;3.90;;;13.00;68.40;;;;;;4970384;28;20043;-50
2023/10/16 10:56:42;;;;;;;7.95;3.80;;;13.10;68.50;;;;;;4959556;28;20420;-52
2023/10/16 10:59:13;;;;;;;5.32;3.67;;;13.20;67.70;;;;;;4972023;28;20043;-51
2023/10/16 11:02:09;;;;;;;5.88;3.70;;;13.20;67.50;;;;;;4974591;28;20501;-47
2023/10/16 11:04:38;;;;;;;6.57;3.45;;;13.30;67.60;;;;;;4963977;28;20045;-52
2023/10/16 11:07:23;;;;;;;6.05;3.05;;;13.40;67.40;;;;;;4980130;23;20162;-51
2023/10/16 11:09:51;;;;;;;6.53;2.70;;;13.40;67.20;;;;;;4965746;28;20050;-48
2023/10/16 11:12:24;;;;;;;3.72;2.33;;;13.50;66.80;;;;;;4962846;28;20055;-49
2023/10/16 11:14:53;;;;;;;3.33;2.67;;;13.60;66.50;;;;;;4961604;28;20047;-49
2023/10/16 11:17:33;;;;;;;5.78;2.85;;;13.70;66.60;;;;;;4954855;28;20070;-48
2023/10/16 11:22:45;;;;;;;4.63;3.25;;;13.90;66.90;;;;;;4970835;28;20085;-50
2023/10/16 11:25:13;;;;;;;3.75;2.80;;;14.00;67.00;;;;;;4962268;28;20768;-50
2023/10/16 11:27:44;;;;;;;2.85;2.55;;;14.10;66.90;;;;;;4970709;28;20125;-49
2023/10/16 11:30:15;;;;;;;4.55;3.00;;;14.20;66.20;;;;;;4960177;28;20050;-53
2023/10/16 11:32:46;;;;;;;5.05;2.35;;;14.30;65.90;;;;;;4960267;28;20043;-51
2023/10/16 11:35:15;;;;;;;4.28;2.15;;;14.40;65.30;;;;;;4967904;28;20046;-50
2023/10/16 11:37:50;;;;;;;2.22;1.60;;;14.50;65.30;;;;;;4969470;28;20398;-50
2023/10/16 11:40:19;;;;;;;1.77;1.27;;;14.60;64.50;;;;;;4960503;28;20098;-52
2023/10/16 11:42:47;;;;;;;2.33;1.60;;;14.70;64.00;;;;;;4959923;28;20129;-54
2023/10/16 11:45:23;;;;;;;1.30;1.20;;;14.80;63.50;;;;;;4963285;28;20090;-49
2023/10/16 11:50:40;;;;;;;3.40;1.70;;;14.90;63.20;;;;;;4963898;28;20121;-52
2023/10/16 11:53:08;;;;;;;3.45;2.03;;;15.00;62.80;;;;;;4964528;28;20467;-53
2023/10/16 11:55:37;;;;;;;3.30;1.75;;;15.00;63.00;;;;;;4964920;28;20050;-52
2023/10/16 11:58:12;;;;;;;4.60;2.20;;;15.10;63.10;;;;;;4962509;28;20043;-49
2023/10/16 12:00:44;;;;;;;3.78;1.65;;;15.20;62.20;;;;;;4968875;28;20053;-50
2023/10/16 12:03:17;;;;;;;4.32;1.95;;;15.20;62.50;;;;;;4975546;28;20506;-54
2023/10/16 12:05:44;;;;;;;3.10;1.77;;;15.30;62.40;;;;;;4966435;28;20065;-53
2023/10/16 12:08:12;;;;;;;4.05;1.90;;;15.40;61.90;;;;;;4983530;28;20506;-50
2023/10/16 12:10:38;;;;;;;4.78;2.72;;;15.50;61.80;;;;;;4960789;28;20493;-51
2023/10/16 12:13:07;;;;;;;1.50;1.40;;;15.50;61.50;;;;;;4955968;28;20134;-53
2023/10/16 12:15:34;;;;;;;1.42;1.30;;;15.60;61.40;;;;;;4961155;28;20052;-50
2023/10/16 12:18:01;;;;;;;3.10;1.83;;;15.70;61.20;;;;;;4969396;28;20062;-53
2023/10/16 12:20:28;;;;;;;4.25;2.03;;;15.80;61.30;;;;;;4955198;28;20049;-50
2023/10/16 12:22:54;;;;;;;4.13;1.95;;;15.80;60.80;;;;;;4960942;28;20032;-51
2023/10/16 12:25:23;;;;;;;4.18;1.65;;;15.90;60.50;;;;;;4961530;28;20406;-49
2023/10/16 12:27:53;;;;;;;2.35;1.60;;;16.00;60.30;;;;;;4965007;28;20482;-51
2023/10/16 12:30:23;;;;;;;3.20;1.70;;;16.10;60.30;;;;;;4965874;28;20110;-51
2023/10/16 12:32:50;;;;;;;3.75;2.03;;;16.20;60.20;;;;;;4961145;28;20067;-51
2023/10/16 12:35:18;;;;;;;1.60;1.50;;;16.20;59.60;;;;;;4968276;28;20082;-51
2023/10/16 12:37:45;;;;;;;4.15;1.50;;;16.30;59.40;;;;;;4960422;28;20757;-51
2023/10/16 12:40:34;;;;;;;3.67;1.63;;;16.30;59.30;;;;;;4960396;28;20043;-50
2023/10/16 12:43:01;;;;;;;2.58;1.85;;;16.40;59.10;;;;;;4968751;28;20109;-53
2023/10/16 12:45:28;;;;;;;2.63;1.80;;;16.40;59.60;;;;;;4970308;28;20477;-51
2023/10/16 12:48:07;;;;;;;2.58;2.08;;;16.50;59.20;;;;;;4960782;28;20409;-53
2023/10/16 12:50:37;;;;;;;5.65;2.50;;;16.50;59.00;;;;;;4959273;28;20526;-53
2023/10/16 12:53:04;;;;;;;4.75;2.33;;;16.60;58.60;;;;;;4978972;28;20113;-51
2023/10/16 12:55:31;;;;;;;3.45;2.25;;;16.60;58.60;;;;;;4961896;28;20046;-51
2023/10/16 12:57:58;;;;;;;4.88;2.38;;;16.60;58.40;;;;;;4969500;28;20501;-49
2023/10/16 13:00:25;;;;;;;3.72;2.72;;;16.60;58.70;;;;;;4961865;28;20122;-54
2023/10/16 13:02:58;;;;;;;3.55;2.33;;;16.70;58.30;;;;;;4960180;28;20050;-51
2023/10/16 13:05:26;;;;;;;3.35;2.20;;;16.70;58.10;;;;;;4964314;28;20070;-51
2023/10/16 13:07:53;;;;;;;4.82;2.42;;;16.80;58.10;;;;;;4983851;28;20487;-54
2023/10/16 13:10:26;;;;;;;5.10;2.47;;;16.80;58.10;;;;;;4961118;28;20046;-50
2023/10/16 13:12:55;;;;;;;3.28;2.40;;;16.90;58.20;;;;;;4959579;28;20043;-51
2023/10/16 13:15:25;;;;;;;4.18;2.95;;;16.90;57.50;;;;;;4951488;28;20043;-52
2023/10/16 13:17:52;;;;;;;3.00;2.53;;;17.00;57.40;;;;;;4960806;28;20078;-54
2023/10/16 13:20:19;;;;;;;3.85;2.25;;;17.10;57.50;;;;;;4967097;28;20073;-52
2023/10/16 13:22:54;;;;;;;4.50;1.95;;;17.20;56.90;;;;;;4963038;28;20501;-52
2023/10/16 13:25:34;;;;;;;2.95;1.77;;;17.30;56.60;;;;;;4963096;28;20125;-52
2023/10/16 13:28:03;;;;;;;3.60;2.45;;;17.30;56.20;;;;;;4965082;28;20098;-53
2023/10/16 13:30:35;;;;;;;2.72;1.92;;;17.50;57.00;;;;;;4959329;28;20078;-51
2023/10/16 13:33:06;;;;;;;1.73;1.40;;;17.60;56.50;;;;;;4959920;28;20050;-51
2023/10/16 13:35:38;;;;;;;2.75;1.60;;;17.80;56.30;;;;;;4963829;28;20082;-49
2023/10/16 13:38:10;;;;;;;3.10;1.77;;;17.90;56.30;;;;;;4964659;28;20107;-53
2023/10/16 13:40:39;;;;;;;3.22;1.77;;;18.20;56.10;;;;;;4970352;28;20101;-50
2023/10/16 13:43:10;;;;;;;2.95;1.10;;;18.50;56.20;;;;;;4967391;28;20051;-53
2023/10/16 13:45:39;;;;;;;1.98;1.42;;;18.80;55.40;;;;;;4965343;28;20505;-55
2023/10/16 13:48:09;;;;;;;5.88;2.13;;;19.20;55.10;;;;;;4965323;28;20494;-52
2023/10/16 13:50:40;;;;;;;4.22;1.52;;;19.50;54.20;;;;;;4962846;28;20053;-51
2023/10/16 13:53:10;;;;;;;2.90;1.75;;;19.80;53.50;;;;;;4968103;28;20039;-53
2023/10/16 13:55:40;;;;;;;2.83;1.67;;;20.00;52.60;;;;;;4965134;28;20517;-53
2023/10/16 13:58:33;;;;;;;3.22;1.50;;;20.10;52.50;;;;;;4926573;29;20561;-53
2023/10/16 14:01:01;;;;;;;1.98;1.25;;;20.30;51.60;;;;;;4962049;28;20134;-53
2023/10/16 14:03:33;;;;;;;4.43;1.80;;;20.30;52.10;;;;;;4963265;28;20412;-54
2023/10/16 14:06:12;;;;;;;2.55;1.65;;;20.30;51.20;;;;;;4966430;28;20047;-53
2023/10/16 14:08:41;;;;;;;2.55;1.52;;;20.30;51.40;;;;;;4964082;28;20050;-56
2023/10/16 14:11:14;;;;;;;3.00;1.60;;;20.30;50.90;;;;;;4962379;28;20129;-54
2023/10/16 14:13:41;;;;;;;6.28;1.67;;;20.20;50.90;;;;;;4955518;28;20154;-53
2023/10/16 14:16:10;;;;;;;2.03;1.13;;;20.10;50.80;;;;;;4951007;28;20070;-55
2023/10/16 14:18:42;;;;;;;1.80;1.60;;;20.00;50.80;;;;;;4966607;28;20058;-53
2023/10/16 14:21:11;;;;;;;2.25;1.08;;;19.90;51.40;;;;;;4958703;28;20045;-52
2023/10/16 14:23:38;;;;;;;2.83;1.77;;;19.80;51.10;;;;;;4964274;28;20070;-52
2023/10/16 14:26:22;;;;;;;1.80;1.20;;;19.70;51.20;;;;;;4961261;28;20401;-54
2023/10/16 14:28:54;;;;;;;1.05;0.90;;;19.50;50.90;;;;;;4963379;28;20106;-51
2023/10/16 14:31:24;;;;;;;;;;;19.40;51.10;;;;;;4967619;28;20074;-53
2023/10/16 14:33:53;;;;;;;1.50;0.75;;;19.50;52.00;;;;;;4962772;28;19922;-50
2023/10/16 14:36:24;;;;;;;2.17;1.40;;;19.30;52.00;;;;;;4963098;28;20122;-54
2023/10/16 14:38:51;;;;;;;1.88;1.25;;;19.20;51.80;;;;;;4962809;28;20054;-50
2023/10/16 14:41:19;;;;;;;4.25;1.40;;;19.10;51.90;;;;;;4963862;28;20572;-50
2023/10/16 14:43:45;;;;;;;2.22;1.10;;;19.10;52.10;;;;;;4983954;28;20457;-50
2023/10/16 14:46:13;;;;;;;1.58;1.00;;;19.00;52.30;;;;;;4970478;28;20518;-52
2023/10/16 14:48:45;;;;;;;0.77;0.68;;;19.00;52.40;;;;;;4968032;28;20053;-53
2023/10/16 14:51:16;;;;;;;1.38;0.90;;;19.00;52.20;;;;;;4969718;28;20059;-51
2023/10/16 14:53:44;;;;;;;2.30;0.95;;;19.00;52.30;;;;;;4969016;28;20144;-53
2023/10/16 14:56:18;;;;;;;2.35;0.98;;;19.10;52.40;;;;;;4966675;28;20057;-51
2023/10/16 14:58:47;;;;;;;3.42;1.20;;;19.30;52.50;;;;;;4968717;28;20081;-52
2023/10/16 15:01:36;;;;;;;1.27;1.10;;;19.40;52.10;;;;;;4964131;28;20058;-54
2023/10/16 15:04:08;;;;;;;1.88;1.05;;;19.60;51.80;;;;;;4966289;28;20043;-53